Washington Dulles International Airport
KIAD : now visible

Airfield :











YOU CAN JOIN US ON...

 
LOGIN :

Register | Disclaimer

   EN    FR    IT 

 









Legend :    VFR   Marginal VFR   IFR   Intensive IFR   Very Intensive IFR
Visi :
Ceiling :
>= 8 km
>= 3000ft
5 to 8 km
1000 to 3000 ft
1500m to 5 km
500 to 1000 ft
800 to 1500m
200 to 500 ft
< 800m
< 200 ft
Symbols :   Thunderstorms  Fog  Heavy snow  Heavy precipitations  Wind > 20 kt






- Airport Elevation : 312 ft
- IATA code : IAD


KIAD - Washington Dulles International

CURRENT METAR :
  • 120252Z 30005KT 10SM CLR 00/M09 A3054 RMK AO2 SLP346 T00001094 51026 $

EXPIRED METARs :
  • 120152Z 31014KT 10SM CLR 01/M09 A3052 RMK AO2 SLP336 T00111094 $
  • 120052Z 32014G20KT 10SM CLR 01/M09 A3049 RMK AO2 SLP328 T00111094 $

TAF KIAD
Valid from the 12 at 00:00 until the 13 at 06:00 UTC


112340Z 1200/1306 32005KT P6SM FEW160
FM120800 33005KT P6SM FEW250
FM121100 35004KT P6SM FEW250
FM121600 07004KT P6SM FEW250
FM122000 14004KT P6SM FEW250



MET'MAP, your aeronautical weather chart ! - Copyright ORBIFLY December 2007 - Disclaimer

ORBIFLY MET'MAP TEAM :

Programming & Development : Alexandra Zaïnal
Concept & original design : Baudouin d'Aumeries
Assistance for programming : Marc-Olivier Méhu
Technical & hardware support : Manuel Goepfert

Contact : metmap@orbifly.com




SOURCES & CREDITS :

   NOAA       Earth
Advisory